Time;durP1;ratioP1;P1;durP2;ratioP2;P2;SDS_P1;SDS_P2;PMS_P1;PMS_P2;Temp;Humidity;BMP_temperature;BMP_pressure;BME280_temperature;BME280_humidity;BME280_pressure;Samples;Min_cycle;Max_cycle;Signal;HPM_P1;HPM_P2
2023/03/18 00:01:54;;;;;;;9.80;4.30;;;;;;;;;;5068655;28;20390;-78
2023/03/18 00:04:20;;;;;;;10.13;4.70;;;;;;;;;;5064012;28;20483;-78
2023/03/18 00:06:46;;;;;;;9.18;4.18;;;;;;;;;;5052011;28;20458;-78
2023/03/18 00:09:13;;;;;;;10.43;4.13;;;;;;;;;;5070781;28;20091;-78
2023/03/18 00:11:40;;;;;;;8.27;4.07;;;;;;;;;;5059764;28;20175;-78
2023/03/18 00:14:07;;;;;;;9.95;4.13;;;;;;;;;;5068257;28;20050;-78
2023/03/18 00:16:34;;;;;;;12.95;4.40;;;;;;;;;;5054450;28;20410;-78
2023/03/18 00:19:01;;;;;;;10.05;4.20;;;;;;;;;;5064263;28;20570;-78
2023/03/18 00:21:28;;;;;;;8.00;4.47;;;;;;;;;;5071263;28;20044;-78
2023/03/18 00:23:57;;;;;;;8.40;4.00;;;;;;;;;;5070659;28;20044;-78
2023/03/18 00:26:24;;;;;;;10.15;4.32;;;;;;;;;;5065217;28;20869;-78
2023/03/18 00:28:50;;;;;;;10.30;4.32;;;;;;;;;;5064724;28;20072;-78
2023/03/18 00:31:16;;;;;;;11.52;4.50;;;;;;;;;;5068940;28;20044;-78
2023/03/18 00:33:44;;;;;;;12.73;4.65;;;;;;;;;;5085787;28;20040;-78
2023/03/18 00:36:14;;;;;;;8.13;3.90;;;;;;;;;;5070450;28;20509;-78
2023/03/18 00:38:41;;;;;;;11.25;4.35;;;;;;;;;;5072770;28;20048;-78
2023/03/18 00:41:10;;;;;;;11.77;4.47;;;;;;;;;;5072616;28;20047;-78
2023/03/18 00:43:44;;;;;;;11.48;4.90;;;;;;;;;;5072550;28;20049;-78
2023/03/18 00:46:11;;;;;;;9.57;4.15;;;;;;;;;;5070489;28;20048;-78
2023/03/18 00:48:37;;;;;;;13.32;4.50;;;;;;;;;;5071111;28;20098;-78
2023/03/18 00:51:04;;;;;;;8.60;4.10;;;;;;;;;;5069298;28;20045;-78
2023/03/18 00:53:30;;;;;;;9.18;4.38;;;;;;;;;;5058666;28;20040;-78
2023/03/18 00:55:56;;;;;;;8.88;4.40;;;;;;;;;;5071162;28;20098;-78
2023/03/18 00:58:23;;;;;;;10.77;5.05;;;;;;;;;;5066447;28;20056;-78
2023/03/18 01:00:49;;;;;;;10.50;4.32;;;;;;;;;;5050332;28;20100;-78
2023/03/18 01:03:16;;;;;;;12.73;4.93;;;;;;;;;;5057011;28;20514;-78
2023/03/18 01:05:44;;;;;;;11.50;4.40;;;;;;;;;;5061590;28;20091;-78
2023/03/18 01:08:11;;;;;;;10.45;4.80;;;;;;;;;;5058266;28;20048;-78
2023/03/18 01:10:37;;;;;;;10.82;5.05;;;;;;;;;;5057021;28;20056;-78
2023/03/18 01:13:03;;;;;;;12.85;5.70;;;;;;;;;;5051484;28;20048;-78
2023/03/18 01:15:29;;;;;;;14.38;5.07;;;;;;;;;;5057612;28;20051;-78
2023/03/18 01:17:57;;;;;;;12.25;5.60;;;;;;;;;;5074479;28;20044;-78
2023/03/18 01:20:24;;;;;;;10.38;5.57;;;;;;;;;;5069802;28;20048;-78
2023/03/18 01:22:50;;;;;;;10.85;5.35;;;;;;;;;;5069635;28;20151;-78
2023/03/18 01:25:16;;;;;;;10.00;5.32;;;;;;;;;;5071837;28;20159;-78
2023/03/18 01:27:43;;;;;;;9.50;4.72;;;;;;;;;;5074298;28;20036;-78
2023/03/18 01:30:10;;;;;;;12.45;4.88;;;;;;;;;;5065412;28;20521;-78
2023/03/18 01:32:36;;;;;;;14.43;5.45;;;;;;;;;;5076055;28;20112;-78
2023/03/18 01:35:03;;;;;;;11.45;5.75;;;;;;;;;;5062629;28;20049;-78
2023/03/18 01:37:30;;;;;;;9.63;5.05;;;;;;;;;;5055631;28;20053;-77
2023/03/18 01:39:57;;;;;;;11.68;5.13;;;;;;;;;;5055423;28;20045;-78
2023/03/18 01:42:23;;;;;;;9.18;5.07;;;;;;;;;;5055654;28;20050;-78
2023/03/18 01:44:49;;;;;;;7.32;4.28;;;;;;;;;;5066316;28;20101;-78
2023/03/18 01:47:16;;;;;;;9.23;5.10;;;;;;;;;;5074989;28;20559;-77
2023/03/18 01:49:44;;;;;;;11.73;5.30;;;;;;;;;;5075341;28;20048;-77
2023/03/18 01:52:14;;;;;;;10.40;5.45;;;;;;;;;;5075295;28;20051;-78
2023/03/18 01:54:52;;;;;;;10.02;5.18;;;;;;;;;;5075137;28;20093;-78
2023/03/18 01:57:18;;;;;;;12.02;5.25;;;;;;;;;;5075328;28;20041;-78
2023/03/18 01:59:45;;;;;;;10.32;5.53;;;;;;;;;;5072363;28;20521;-78
2023/03/18 02:02:13;;;;;;;9.57;5.00;;;;;;;;;;5074315;28;20037;-78
2023/03/18 02:04:41;;;;;;;12.38;5.45;;;;;;;;;;5071611;28;20063;-78
2023/03/18 02:07:07;;;;;;;10.73;5.53;;;;;;;;;;5073634;28;20053;-78
2023/03/18 02:09:33;;;;;;;11.60;5.22;;;;;;;;;;5073831;28;20053;-78
2023/03/18 02:12:01;;;;;;;13.35;5.65;;;;;;;;;;5066904;28;20052;-78
2023/03/18 02:14:27;;;;;;;11.20;5.57;;;;;;;;;;5067211;28;20086;-78
2023/03/18 02:16:58;;;;;;;10.45;4.97;;;;;;;;;;5072514;28;20041;-78
2023/03/18 02:19:45;;;;;;;10.48;5.10;;;;;;;;;;5066776;28;20037;-78
2023/03/18 02:22:17;;;;;;;12.75;5.80;;;;;;;;;;5055011;28;20053;-78
2023/03/18 02:24:49;;;;;;;10.15;5.30;;;;;;;;;;5059442;28;20384;-78
2023/03/18 02:27:19;;;;;;;10.20;5.15;;;;;;;;;;5057727;28;20040;-78
2023/03/18 02:29:46;;;;;;;12.70;5.40;;;;;;;;;;5056721;28;20094;-78
2023/03/18 02:32:13;;;;;;;11.95;5.63;;;;;;;;;;5071059;28;20306;-78
2023/03/18 02:34:40;;;;;;;10.27;5.85;;;;;;;;;;5057573;28;20073;-78
2023/03/18 02:37:10;;;;;;;13.15;5.63;;;;;;;;;;5067032;28;20044;-78
2023/03/18 02:39:36;;;;;;;9.45;5.95;;;;;;;;;;5070377;28;20052;-78
2023/03/18 02:42:03;;;;;;;10.93;5.53;;;;;;;;;;5060569;28;20041;-78
2023/03/18 02:44:29;;;;;;;12.38;6.38;;;;;;;;;;5054147;28;20174;-78
2023/03/18 02:47:03;;;;;;;10.55;5.95;;;;;;;;;;5064997;28;20631;-77
2023/03/18 02:49:31;;;;;;;13.52;6.82;;;;;;;;;;5073038;28;20048;-78
2023/03/18 02:51:57;;;;;;;11.70;6.25;;;;;;;;;;5071579;28;20051;-78
2023/03/18 02:54:28;;;;;;;11.75;6.13;;;;;;;;;;5071499;28;20514;-78
2023/03/18 02:56:54;;;;;;;12.15;7.15;;;;;;;;;;5060967;28;20049;-78
2023/03/18 02:59:21;;;;;;;11.85;6.50;;;;;;;;;;5061795;28;20043;-78
2023/03/18 03:01:48;;;;;;;12.07;7.22;;;;;;;;;;5073687;28;20629;-78
2023/03/18 03:04:15;;;;;;;17.23;7.00;;;;;;;;;;5072700;28;20445;-78
2023/03/18 03:06:41;;;;;;;11.55;7.05;;;;;;;;;;5063944;28;20061;-78
2023/03/18 03:09:09;;;;;;;12.68;7.13;;;;;;;;;;5072092;28;20076;-78
2023/03/18 03:11:35;;;;;;;15.32;7.28;;;;;;;;;;5068253;28;20059;-78
2023/03/18 03:14:02;;;;;;;11.68;7.10;;;;;;;;;;5057828;28;20048;-78
2023/03/18 03:16:28;;;;;;;15.13;7.05;;;;;;;;;;5072067;28;20105;-78
2023/03/18 03:18:55;;;;;;;12.60;6.57;;;;;;;;;;5066691;28;20048;-78
2023/03/18 03:21:21;;;;;;;11.02;7.45;;;;;;;;;;5066226;28;20059;-78
2023/03/18 03:23:47;;;;;;;11.45;6.95;;;;;;;;;;5093741;28;20053;-78
2023/03/18 03:26:14;;;;;;;12.25;7.43;;;;;;;;;;5058726;28;20041;-78
2023/03/18 03:28:40;;;;;;;13.52;7.55;;;;;;;;;;5066880;28;20049;-78
2023/03/18 03:31:07;;;;;;;11.93;7.03;;;;;;;;;;5070453;28;20433;-78
2023/03/18 03:33:33;;;;;;;13.15;7.70;;;;;;;;;;5066136;28;20041;-78
2023/03/18 03:35:59;;;;;;;14.05;7.88;;;;;;;;;;5060869;28;20056;-78
2023/03/18 03:38:26;;;;;;;14.95;7.40;;;;;;;;;;5066742;28;20040;-78
2023/03/18 03:40:53;;;;;;;11.57;7.65;;;;;;;;;;5057992;28;20131;-78
2023/03/18 03:43:19;;;;;;;16.40;8.80;;;;;;;;;;5056103;28;20056;-78
2023/03/18 03:45:45;;;;;;;14.18;8.90;;;;;;;;;;5071056;28;20056;-78
2023/03/18 03:48:11;;;;;;;16.05;9.18;;;;;;;;;;5069819;28;20044;-78
2023/03/18 03:50:39;;;;;;;16.35;9.70;;;;;;;;;;5066785;28;20052;-78
2023/03/18 03:53:05;;;;;;;15.38;10.73;;;;;;;;;;5072400;28;20051;-78
2023/03/18 03:55:32;;;;;;;15.00;9.75;;;;;;;;;;5053688;28;20048;-78
2023/03/18 03:57:58;;;;;;;15.00;9.82;;;;;;;;;;5055765;28;20487;-78
2023/03/18 04:00:25;;;;;;;14.68;9.15;;;;;;;;;;5071729;28;20087;-78
2023/03/18 04:02:52;;;;;;;14.30;9.65;;;;;;;;;;5071669;28;20044;-78
2023/03/18 04:05:19;;;;;;;16.70;9.88;;;;;;;;;;5070307;28;20364;-78
2023/03/18 04:07:46;;;;;;;16.67;10.32;;;;;;;;;;5071437;28;20052;-78
2023/03/18 04:10:13;;;;;;;17.60;10.75;;;;;;;;;;5069236;28;20049;-78
2023/03/18 04:12:39;;;;;;;18.20;10.15;;;;;;;;;;5058983;28;20056;-78
2023/03/18 04:15:06;;;;;;;14.85;9.68;;;;;;;;;;5066400;28;20044;-77
2023/03/18 04:17:33;;;;;;;18.13;10.07;;;;;;;;;;5070423;28;20045;-78
2023/03/18 04:19:59;;;;;;;14.18;9.98;;;;;;;;;;5063586;28;20044;-78
2023/03/18 04:22:26;;;;;;;16.88;9.43;;;;;;;;;;5070906;28;20045;-78
2023/03/18 04:24:53;;;;;;;16.27;10.15;;;;;;;;;;5070273;28;20053;-78
2023/03/18 04:27:19;;;;;;;15.20;9.88;;;;;;;;;;5065609;28;20051;-78
2023/03/18 04:29:45;;;;;;;16.52;10.52;;;;;;;;;;5066730;28;20044;-78
2023/03/18 04:32:11;;;;;;;16.00;9.82;;;;;;;;;;5070543;28;20407;-78
2023/03/18 04:34:37;;;;;;;13.68;9.68;;;;;;;;;;5067369;28;20040;-78
2023/03/18 04:37:04;;;;;;;14.95;9.38;;;;;;;;;;5071309;28;20037;-78
2023/03/18 04:39:30;;;;;;;18.40;10.30;;;;;;;;;;5070193;28;20094;-78
2023/03/18 04:41:57;;;;;;;14.20;9.80;;;;;;;;;;5054821;28;20056;-78
2023/03/18 04:44:23;;;;;;;16.13;10.38;;;;;;;;;;5061715;28;20076;-78
2023/03/18 04:46:50;;;;;;;18.85;10.82;;;;;;;;;;5070364;28;20068;-78
2023/03/18 04:49:16;;;;;;;17.58;9.93;;;;;;;;;;5052172;28;20463;-78
2023/03/18 04:51:42;;;;;;;16.88;11.30;;;;;;;;;;5056404;28;20060;-78
2023/03/18 04:54:08;;;;;;;14.57;10.73;;;;;;;;;;5054966;28;20045;-78
2023/03/18 04:56:34;;;;;;;16.27;11.05;;;;;;;;;;5059845;28;20495;-78
2023/03/18 04:59:00;;;;;;;18.70;11.20;;;;;;;;;;5075143;28;20097;-78
2023/03/18 05:01:27;;;;;;;18.10;11.13;;;;;;;;;;5072993;28;20040;-78
2023/03/18 05:03:53;;;;;;;14.00;10.32;;;;;;;;;;5074224;28;20048;-78
2023/03/18 05:06:24;;;;;;;17.77;11.55;;;;;;;;;;5074881;28;20071;-78
2023/03/18 05:08:50;;;;;;;18.70;11.07;;;;;;;;;;5074638;28;20044;-78
2023/03/18 05:11:17;;;;;;;15.05;10.52;;;;;;;;;;5068516;28;20072;-78
2023/03/18 05:13:43;;;;;;;14.48;10.52;;;;;;;;;;5070973;28;20098;-78
2023/03/18 05:16:10;;;;;;;15.38;10.07;;;;;;;;;;5070307;28;20445;-78
2023/03/18 05:18:36;;;;;;;15.13;9.75;;;;;;;;;;5065720;28;20123;-78
2023/03/18 05:21:04;;;;;;;13.95;9.07;;;;;;;;;;5072308;28;20044;-78
2023/03/18 05:23:30;;;;;;;14.50;9.82;;;;;;;;;;5062387;28;20491;-78
2023/03/18 05:25:56;;;;;;;14.63;10.00;;;;;;;;;;5069433;28;20502;-78
2023/03/18 05:28:22;;;;;;;15.18;9.52;;;;;;;;;;5075685;28;20045;-78
2023/03/18 05:30:48;;;;;;;17.55;9.30;;;;;;;;;;5075873;28;20048;-78
2023/03/18 05:33:14;;;;;;;14.85;10.00;;;;;;;;;;5063711;28;20071;-78
2023/03/18 05:35:41;;;;;;;16.17;10.43;;;;;;;;;;5055896;28;20044;-78
2023/03/18 05:38:07;;;;;;;16.38;10.00;;;;;;;;;;5069555;28;20046;-78
2023/03/18 05:40:33;;;;;;;18.15;10.75;;;;;;;;;;5068921;28;20052;-78
2023/03/18 05:42:59;;;;;;;13.50;10.02;;;;;;;;;;5066758;28;20499;-78
2023/03/18 05:45:25;;;;;;;17.83;9.93;;;;;;;;;;5062869;28;20041;-78
2023/03/18 05:47:51;;;;;;;14.80;10.10;;;;;;;;;;5063397;28;20131;-79
2023/03/18 05:50:27;;;;;;;16.95;10.85;;;;;;;;;;5058088;28;20040;-78
2023/03/18 05:52:54;;;;;;;15.07;10.40;;;;;;;;;;5073300;28;20087;-78
2023/03/18 05:55:20;;;;;;;14.82;10.20;;;;;;;;;;5056871;28;20514;-78
2023/03/18 05:57:47;;;;;;;15.10;10.88;;;;;;;;;;5065854;28;20044;-78
2023/03/18 06:00:14;;;;;;;16.45;10.65;;;;;;;;;;5060365;28;20048;-78
2023/03/18 06:02:40;;;;;;;16.75;10.75;;;;;;;;;;5062174;28;20441;-78
2023/03/18 06:05:07;;;;;;;16.42;11.65;;;;;;;;;;5053761;28;20045;-77
2023/03/18 06:07:33;;;;;;;17.00;11.10;;;;;;;;;;5053595;28;20403;-78
2023/03/18 06:09:59;;;;;;;15.60;11.38;;;;;;;;;;5066845;28;20100;-78
2023/03/18 06:12:26;;;;;;;16.00;11.07;;;;;;;;;;5060678;28;20045;-78
2023/03/18 06:14:53;;;;;;;17.63;12.13;;;;;;;;;;5059093;28;20060;-78
2023/03/18 06:17:19;;;;;;;17.60;12.75;;;;;;;;;;5052921;28;20491;-78
2023/03/18 06:19:47;;;;;;;16.90;11.55;;;;;;;;;;5069937;28;20048;-78
2023/03/18 06:22:14;;;;;;;17.23;11.68;;;;;;;;;;5069243;28;20051;-78
2023/03/18 06:24:40;;;;;;;18.63;12.48;;;;;;;;;;5060455;28;20045;-78
2023/03/18 06:27:06;;;;;;;20.02;11.73;;;;;;;;;;5065407;28;20052;-78
2023/03/18 06:29:32;;;;;;;15.95;11.23;;;;;;;;;;5062337;28;20476;-78
2023/03/18 06:31:58;;;;;;;18.35;11.13;;;;;;;;;;5057453;28;20053;-78
2023/03/18 06:34:24;;;;;;;17.95;11.32;;;;;;;;;;5055519;28;20048;-78
2023/03/18 06:36:51;;;;;;;20.42;13.00;;;;;;;;;;5060344;28;20052;-78
2023/03/18 06:39:17;;;;;;;18.60;12.13;;;;;;;;;;5065546;28;20045;-78
2023/03/18 06:41:44;;;;;;;19.50;12.57;;;;;;;;;;5086088;28;20051;-78
2023/03/18 06:44:10;;;;;;;18.63;12.10;;;;;;;;;;5053118;28;20459;-78
2023/03/18 06:46:36;;;;;;;16.95;11.68;;;;;;;;;;5053507;28;20045;-78
2023/03/18 06:49:02;;;;;;;18.73;12.48;;;;;;;;;;5067000;28;20059;-78
2023/03/18 06:51:28;;;;;;;19.20;12.40;;;;;;;;;;5073032;28;20469;-78
2023/03/18 06:53:55;;;;;;;15.38;11.68;;;;;;;;;;5060774;28;20422;-78
2023/03/18 06:56:22;;;;;;;22.60;12.10;;;;;;;;;;5071022;28;20045;-78
2023/03/18 06:58:48;;;;;;;15.75;12.25;;;;;;;;;;5065647;28;20082;-78
2023/03/18 07:01:14;;;;;;;19.33;11.95;;;;;;;;;;5068937;28;20390;-78
2023/03/18 07:03:41;;;;;;;15.75;11.93;;;;;;;;;;5055225;28;20075;-78
2023/03/18 07:06:09;;;;;;;20.27;12.07;;;;;;;;;;5064015;28;20048;-78
2023/03/18 07:08:35;;;;;;;17.13;11.45;;;;;;;;;;5073183;28;20048;-78
2023/03/18 07:11:02;;;;;;;17.80;11.35;;;;;;;;;;5072743;28;20574;-77
2023/03/18 07:13:28;;;;;;;16.20;11.55;;;;;;;;;;5072166;28;20606;-78
2023/03/18 07:15:57;;;;;;;19.42;12.90;;;;;;;;;;5073321;28;20106;-78
2023/03/18 07:18:23;;;;;;;15.50;11.73;;;;;;;;;;5072534;28;20056;-78
2023/03/18 07:20:49;;;;;;;19.65;13.23;;;;;;;;;;5072777;28;20044;-78
2023/03/18 07:23:16;;;;;;;20.02;13.43;;;;;;;;;;5071555;28;20126;-78
2023/03/18 07:25:43;;;;;;;20.15;12.73;;;;;;;;;;5058159;28;20718;-78
2023/03/18 07:28:09;;;;;;;20.23;12.70;;;;;;;;;;5067890;28;20148;-78
2023/03/18 07:30:37;;;;;;;16.83;12.48;;;;;;;;;;5067620;28;20467;-78
2023/03/18 07:33:03;;;;;;;16.20;11.95;;;;;;;;;;5060494;28;20137;-78
2023/03/18 07:35:29;;;;;;;16.40;11.48;;;;;;;;;;5065229;28;20056;-78
2023/03/18 07:37:56;;;;;;;21.00;13.38;;;;;;;;;;5067736;28;20537;-78
2023/03/18 07:40:22;;;;;;;17.08;11.52;;;;;;;;;;5063159;28;20045;-78
2023/03/18 07:42:50;;;;;;;16.65;12.32;;;;;;;;;;5066812;28;20049;-78
2023/03/18 07:45:17;;;;;;;20.75;12.95;;;;;;;;;;5052762;28;20461;-78
2023/03/18 07:47:43;;;;;;;15.35;11.52;;;;;;;;;;5053280;28;20136;-78
2023/03/18 07:50:09;;;;;;;19.05;12.25;;;;;;;;;;5069581;28;20048;-78
2023/03/18 07:52:36;;;;;;;17.25;12.27;;;;;;;;;;5066740;28;20071;-78
2023/03/18 07:55:03;;;;;;;18.13;13.07;;;;;;;;;;5061795;28;20067;-78
2023/03/18 07:57:29;;;;;;;18.67;13.00;;;;;;;;;;5070436;28;20052;-78
2023/03/18 07:59:55;;;;;;;17.98;12.07;;;;;;;;;;5074057;28;20044;-78
2023/03/18 08:02:22;;;;;;;18.90;12.30;;;;;;;;;;5070528;28;20386;-78
2023/03/18 08:04:48;;;;;;;19.77;13.65;;;;;;;;;;5069131;28;20507;-78
2023/03/18 08:07:16;;;;;;;16.80;13.02;;;;;;;;;;5061187;28;20053;-78
2023/03/18 08:09:42;;;;;;;19.85;13.88;;;;;;;;;;5070788;28;20079;-78
2023/03/18 08:12:08;;;;;;;17.52;12.13;;;;;;;;;;5066136;28;20087;-78
2023/03/18 08:14:34;;;;;;;19.20;13.52;;;;;;;;;;5092385;28;20055;-78
2023/03/18 08:17:00;;;;;;;20.95;15.32;;;;;;;;;;5092361;28;20142;-78
2023/03/18 08:19:27;;;;;;;22.70;16.20;;;;;;;;;;5075214;28;20041;-78
2023/03/18 08:21:53;;;;;;;20.25;14.73;;;;;;;;;;5067885;28;20095;-78
2023/03/18 08:24:19;;;;;;;21.98;15.40;;;;;;;;;;5088712;28;20040;-78
2023/03/18 08:26:46;;;;;;;22.33;15.48;;;;;;;;;;5074699;28;20131;-78
2023/03/18 08:29:12;;;;;;;18.67;14.65;;;;;;;;;;5066827;28;20144;-78
2023/03/18 08:31:38;;;;;;;23.30;14.90;;;;;;;;;;5056096;28;20048;-78
2023/03/18 08:34:04;;;;;;;22.25;15.30;;;;;;;;;;5055915;28;20524;-78
2023/03/18 08:36:31;;;;;;;21.67;15.40;;;;;;;;;;5057634;28;20044;-78
2023/03/18 08:38:57;;;;;;;19.63;15.75;;;;;;;;;;5057960;28;20131;-78
2023/03/18 08:41:24;;;;;;;40.70;29.20;;;;;;;;;;5076081;28;20456;-78
2023/03/18 08:43:51;;;;;;;30.33;20.15;;;;;;;;;;5074855;28;20519;-78
2023/03/18 08:46:17;;;;;;;25.85;18.95;;;;;;;;;;5074857;28;20036;-78
2023/03/18 08:48:44;;;;;;;26.48;18.48;;;;;;;;;;5064172;28;20068;-78
2023/03/18 08:51:10;;;;;;;28.55;19.73;;;;;;;;;;5075727;28;20044;-78
2023/03/18 08:53:36;;;;;;;26.95;20.58;;;;;;;;;;5062604;28;20049;-78
2023/03/18 08:56:04;;;;;;;27.95;18.75;;;;;;;;;;5063437;28;20457;-78
2023/03/18 08:58:31;;;;;;;30.10;22.00;;;;;;;;;;5076422;28;20105;-78
2023/03/18 09:00:57;;;;;;;28.75;22.33;;;;;;;;;;5063403;28;20055;-78
2023/03/18 09:03:23;;;;;;;24.33;19.58;;;;;;;;;;5070850;28;20402;-78
2023/03/18 09:05:54;;;;;;;29.55;20.70;;;;;;;;;;5057995;28;20051;-78
2023/03/18 09:08:20;;;;;;;27.67;20.40;;;;;;;;;;5070358;28;20064;-78
2023/03/18 09:10:47;;;;;;;25.70;20.02;;;;;;;;;;5074425;28;20053;-78
2023/03/18 09:13:13;;;;;;;24.13;18.67;;;;;;;;;;5074457;28;20564;-78
2023/03/18 09:15:42;;;;;;;29.88;20.67;;;;;;;;;;5074150;28;20052;-78
2023/03/18 09:18:08;;;;;;;26.38;19.55;;;;;;;;;;5074973;28;20049;-78
2023/03/18 09:20:34;;;;;;;29.17;20.00;;;;;;;;;;5069291;28;20056;-78
2023/03/18 09:23:01;;;;;;;26.88;20.88;;;;;;;;;;5064611;28;20053;-78
2023/03/18 09:25:27;;;;;;;28.60;20.65;;;;;;;;;;5066260;28;20036;-78
2023/03/18 09:27:53;;;;;;;28.85;22.70;;;;;;;;;;5081502;28;20044;-78
2023/03/18 09:30:20;;;;;;;30.05;22.17;;;;;;;;;;5072225;28;20407;-79
2023/03/18 09:32:46;;;;;;;24.92;20.58;;;;;;;;;;5071326;28;20075;-78
2023/03/18 09:35:13;;;;;;;34.03;22.45;;;;;;;;;;5072319;28;20048;-78
2023/03/18 09:37:39;;;;;;;25.85;20.00;;;;;;;;;;5069469;28;20109;-78
2023/03/18 09:40:06;;;;;;;27.33;19.80;;;;;;;;;;5073000;28;20098;-78
2023/03/18 09:42:50;;;;;;;24.95;19.35;;;;;;;;;;5067014;28;20044;-78
2023/03/18 09:45:23;;;;;;;24.02;19.73;;;;;;;;;;5069001;28;20045;-78
2023/03/18 09:47:59;;;;;;;24.20;19.25;;;;;;;;;;5069300;28;20048;-78
2023/03/18 09:50:26;;;;;;;22.55;16.70;;;;;;;;;;5072977;28;20052;-78
2023/03/18 09:52:58;;;;;;;26.13;20.88;;;;;;;;;;5072806;28;20124;-78
2023/03/18 09:55:34;;;;;;;27.08;21.17;;;;;;;;;;5072697;28;20044;-78
2023/03/18 09:58:02;;;;;;;24.20;19.00;;;;;;;;;;5055399;28;20076;-78
2023/03/18 10:00:29;;;;;;;29.52;21.70;;;;;;;;;;5071849;28;20044;-78
2023/03/18 10:03:31;;;;;;;28.50;21.13;;;;;;;;;;5070320;28;20052;-78
2023/03/18 10:06:05;;;;;;;31.58;22.17;;;;;;;;;;5042499;28;20069;-78
2023/03/18 10:08:47;;;;;;;25.70;21.02;;;;;;;;;;5027372;28;20053;-78
2023/03/18 10:11:18;;;;;;;25.35;21.35;;;;;;;;;;5027903;28;20041;-78
2023/03/18 10:13:44;;;;;;;;;;;;;;;;;;5031587;28;20421;-78
2023/03/18 10:16:13;;;;;;;26.45;19.88;;;;;;;;;;5029166;28;19948;-78
2023/03/18 10:18:42;;;;;;;23.25;19.17;;;;;;;;;;5012205;28;20053;-78
2023/03/18 10:21:10;;;;;;;21.80;18.13;;;;;;;;;;5012293;28;20452;-78
2023/03/18 10:24:02;;;;;;;24.75;19.25;;;;;;;;;;5016247;28;20042;-78
2023/03/18 10:26:51;;;;;;;24.33;19.58;;;;;;;;;;5034261;28;20447;-77
2023/03/18 10:29:27;;;;;;;22.48;18.50;;;;;;;;;;5018641;28;20045;-77
2023/03/18 10:32:01;;;;;;;20.70;17.55;;;;;;;;;;5031538;28;20124;-77
2023/03/18 10:34:32;;;;;;;21.92;18.25;;;;;;;;;;5031259;28;20064;-77
2023/03/18 10:37:16;;;;;;;20.60;17.05;;;;;;;;;;5031364;28;20108;-77
2023/03/18 10:39:44;;;;;;;20.85;16.55;;;;;;;;;;5040801;28;20065;-77
2023/03/18 10:42:22;;;;;;;20.05;17.30;;;;;;;;;;5053667;28;20047;-77
2023/03/18 10:44:49;;;;;;;22.70;17.65;;;;;;;;;;5068241;28;20048;-77
2023/03/18 10:47:21;;;;;;;22.27;17.45;;;;;;;;;;5051476;28;20041;-77
2023/03/18 10:49:56;;;;;;;20.67;17.55;;;;;;;;;;5053492;28;20088;-78
2023/03/18 10:52:33;;;;;;;23.33;17.45;;;;;;;;;;5053559;28;20511;-77
2023/03/18 10:54:59;;;;;;;20.60;17.30;;;;;;;;;;5058144;28;20084;-77
2023/03/18 10:57:25;;;;;;;21.63;18.70;;;;;;;;;;5093735;28;20048;-77
2023/03/18 10:59:52;;;;;;;23.00;18.45;;;;;;;;;;5088066;28;20059;-78
2023/03/18 11:02:33;;;;;;;19.63;15.02;;;;;;;;;;5052797;28;20091;-78
2023/03/18 11:05:15;;;;;;;16.08;12.48;;;;;;;;;;5053018;28;20452;-78
2023/03/18 11:07:57;;;;;;;17.30;13.55;;;;;;;;;;5071131;28;20574;-76
2023/03/18 11:10:24;;;;;;;18.38;12.95;;;;;;;;;;5069014;28;20060;-77
2023/03/18 11:12:54;;;;;;;17.70;13.23;;;;;;;;;;5068131;28;20060;-79
2023/03/18 11:15:20;;;;;;;15.32;12.25;;;;;;;;;;5070050;28;20056;-78
2023/03/18 11:17:50;;;;;;;17.83;12.80;;;;;;;;;;5052786;28;20071;-77
2023/03/18 11:20:20;;;;;;;15.57;12.00;;;;;;;;;;5071829;28;20510;-79
2023/03/18 11:22:50;;;;;;;15.07;11.98;;;;;;;;;;5055271;28;20414;-79
2023/03/18 11:25:17;;;;;;;16.00;11.95;;;;;;;;;;5059754;28;20041;-79
2023/03/18 11:27:47;;;;;;;15.55;11.35;;;;;;;;;;5068664;28;20074;-78
2023/03/18 11:30:16;;;;;;;13.60;9.40;;;;;;;;;;5061975;28;20577;-78
2023/03/18 11:32:57;;;;;;;12.88;9.85;;;;;;;;;;5067557;28;20059;-79
2023/03/18 11:35:36;;;;;;;12.07;9.80;;;;;;;;;;5060170;28;20071;-79
2023/03/18 11:38:03;;;;;;;13.48;9.98;;;;;;;;;;5066533;28;20123;-79
2023/03/18 11:40:30;;;;;;;10.07;9.05;;;;;;;;;;5069047;28;20114;-79
2023/03/18 11:43:03;;;;;;;13.20;9.15;;;;;;;;;;5072391;28;20411;-79
2023/03/18 11:45:42;;;;;;;10.85;8.77;;;;;;;;;;5085000;28;20059;-79
2023/03/18 11:48:13;;;;;;;13.75;9.38;;;;;;;;;;5083000;28;20053;-79
2023/03/18 11:50:45;;;;;;;11.48;8.57;;;;;;;;;;5072081;28;20056;-79
2023/03/18 11:53:11;;;;;;;11.60;8.25;;;;;;;;;;5072396;28;20048;-78
2023/03/18 11:55:47;;;;;;;11.55;8.25;;;;;;;;;;5060877;28;20102;-78
2023/03/18 11:58:40;;;;;;;23.60;16.23;;;;;;;;;;5071275;28;20106;-79
2023/03/18 12:01:12;;;;;;;11.55;7.70;;;;;;;;;;5050263;28;20055;-79
2023/03/18 12:04:03;;;;;;;11.45;8.30;;;;;;;;;;5068245;28;20094;-78
2023/03/18 12:06:30;;;;;;;10.27;7.18;;;;;;;;;;5068402;28;20056;-78
2023/03/18 12:09:16;;;;;;;17.05;10.88;;;;;;;;;;5056383;28;20068;-78
2023/03/18 12:12:00;;;;;;;8.70;6.90;;;;;;;;;;5050869;28;20040;-76
2023/03/18 12:14:49;;;;;;;13.45;7.38;;;;;;;;;;5076638;28;20056;-75
2023/03/18 12:17:21;;;;;;;9.30;7.13;;;;;;;;;;5068130;28;20052;-76
2023/03/18 12:19:47;;;;;;;14.85;7.68;;;;;;;;;;5064273;28;20049;-76
2023/03/18 12:22:22;;;;;;;10.48;7.53;;;;;;;;;;5052435;28;20514;-76
2023/03/18 12:24:55;;;;;;;11.48;7.78;;;;;;;;;;5060238;28;20049;-81
2023/03/18 12:27:21;;;;;;;9.75;6.72;;;;;;;;;;5060626;28;20048;-76
2023/03/18 12:29:53;;;;;;;11.38;6.93;;;;;;;;;;5055158;28;20080;-76
2023/03/18 12:32:35;;;;;;;9.75;5.88;;;;;;;;;;5057248;28;20044;-76
2023/03/18 12:35:20;;;;;;;11.48;7.10;;;;;;;;;;5064591;28;20053;-76
2023/03/18 12:38:05;;;;;;;11.23;7.30;;;;;;;;;;5065142;28;20464;-76
2023/03/18 12:40:33;;;;;;;21.05;14.63;;;;;;;;;;5051788;28;20067;-76
2023/03/18 12:43:08;;;;;;;15.00;10.07;;;;;;;;;;5051266;28;20450;-76
2023/03/18 12:45:41;;;;;;;15.18;9.90;;;;;;;;;;5063390;28;20048;-77
2023/03/18 12:48:20;;;;;;;12.95;8.63;;;;;;;;;;5057171;28;20049;-76
2023/03/18 12:50:50;;;;;;;10.60;7.68;;;;;;;;;;5069221;28;20048;-76
2023/03/18 12:53:25;;;;;;;10.80;7.10;;;;;;;;;;5061517;28;20127;-76
2023/03/18 12:55:57;;;;;;;11.63;7.82;;;;;;;;;;5051363;28;20384;-76
2023/03/18 12:58:50;;;;;;;12.35;8.90;;;;;;;;;;5071448;28;20131;-76
2023/03/18 13:01:16;;;;;;;12.02;8.68;;;;;;;;;;5050518;28;20053;-76
2023/03/18 13:03:48;;;;;;;12.13;8.45;;;;;;;;;;5053260;28;20044;-77
2023/03/18 13:06:25;;;;;;;11.73;8.38;;;;;;;;;;5051571;28;20134;-76
2023/03/18 13:09:17;;;;;;;10.68;7.47;;;;;;;;;;5078834;28;20101;-76
2023/03/18 13:12:00;;;;;;;14.80;9.60;;;;;;;;;;5045044;28;20594;-76
2023/03/18 13:14:27;;;;;;;12.77;9.48;;;;;;;;;;5055419;28;20573;-76
2023/03/18 13:16:55;;;;;;;16.92;12.35;;;;;;;;;;5070171;28;20536;-77
2023/03/18 13:19:21;;;;;;;17.00;11.07;;;;;;;;;;5062011;28;20045;-77
2023/03/18 13:21:53;;;;;;;11.15;8.25;;;;;;;;;;5054703;28;20076;-78
2023/03/18 13:24:20;;;;;;;10.02;8.38;;;;;;;;;;5059563;28;20654;-77
2023/03/18 13:27:05;;;;;;;11.02;8.05;;;;;;;;;;5062961;28;20140;-75
2023/03/18 13:29:31;;;;;;;12.02;8.88;;;;;;;;;;5068318;28;20048;-75
2023/03/18 13:32:03;;;;;;;11.10;8.07;;;;;;;;;;5058201;28;20110;-76
2023/03/18 13:34:48;;;;;;;12.57;8.48;;;;;;;;;;5065263;28;20552;-75
2023/03/18 13:37:33;;;;;;;13.95;8.80;;;;;;;;;;5057992;28;20033;-76
2023/03/18 13:40:06;;;;;;;12.60;9.88;;;;;;;;;;5074825;28;20406;-75
2023/03/18 13:42:32;;;;;;;11.30;8.85;;;;;;;;;;5058041;28;20518;-75
2023/03/18 13:45:01;;;;;;;11.60;8.20;;;;;;;;;;5065369;28;20514;-75
2023/03/18 13:47:31;;;;;;;13.23;9.45;;;;;;;;;;5054416;28;20438;-76
2023/03/18 13:50:02;;;;;;;12.75;8.70;;;;;;;;;;5070256;28;20064;-75
2023/03/18 13:52:36;;;;;;;12.38;9.52;;;;;;;;;;5079219;28;20048;-75
2023/03/18 13:55:05;;;;;;;13.00;9.23;;;;;;;;;;5073587;28;20045;-76
2023/03/18 13:57:42;;;;;;;10.23;8.50;;;;;;;;;;5083471;28;20040;-76
2023/03/18 14:00:11;;;;;;;11.95;9.05;;;;;;;;;;5063982;28;20530;-76
2023/03/18 14:02:41;;;;;;;10.88;8.00;;;;;;;;;;5053866;28;20088;-75
2023/03/18 14:05:26;;;;;;;10.85;8.18;;;;;;;;;;5057525;28;20053;-75
2023/03/18 14:07:54;;;;;;;12.05;8.25;;;;;;;;;;5053201;28;20111;-76
2023/03/18 14:10:22;;;;;;;12.98;7.25;;;;;;;;;;5071944;28;20060;-76
2023/03/18 14:12:48;;;;;;;9.27;6.47;;;;;;;;;;5065953;28;20049;-76
2023/03/18 14:15:14;;;;;;;11.48;6.25;;;;;;;;;;5078866;28;20047;-76
2023/03/18 14:17:46;;;;;;;8.77;6.60;;;;;;;;;;5055884;28;20053;-77
2023/03/18 14:20:18;;;;;;;10.07;6.30;;;;;;;;;;5053406;28;20049;-76
2023/03/18 14:22:45;;;;;;;9.27;5.57;;;;;;;;;;5058647;28;20045;-76
2023/03/18 14:25:20;;;;;;;9.07;6.00;;;;;;;;;;5058237;28;20060;-77
2023/03/18 14:27:51;;;;;;;8.57;5.70;;;;;;;;;;5072284;28;20064;-78
2023/03/18 14:30:17;;;;;;;;;;;;;;;;;;5060739;28;20090;-78
2023/03/18 14:32:56;;;;;;;13.40;9.10;;;;;;;;;;5053355;28;20233;-78
2023/03/18 14:35:27;;;;;;;10.65;6.32;;;;;;;;;;5053042;28;20045;-78
2023/03/18 14:37:55;;;;;;;7.13;4.50;;;;;;;;;;5070189;28;20049;-78